sensor_id;sensor_type;location;lat;lon;timestamp;temperature;humidity
46652;DHT22;32377;52.182;5.398;2023-05-13T00:02:23;15.50;99.90
46652;DHT22;32377;52.182;5.398;2023-05-13T00:04:49;15.40;99.90
46652;DHT22;32377;52.182;5.398;2023-05-13T00:07:15;15.30;99.90
46652;DHT22;32377;52.182;5.398;2023-05-13T00:09:40;15.30;99.90
46652;DHT22;32377;52.182;5.398;2023-05-13T00:12:07;15.30;99.90
46652;DHT22;32377;52.182;5.398;2023-05-13T00:14:32;15.20;99.90
46652;DHT22;32377;52.182;5.398;2023-05-13T00:16:58;15.20;99.90
46652;DHT22;32377;52.182;5.398;2023-05-13T00:19:25;15.20;99.90
46652;DHT22;32377;52.182;5.398;2023-05-13T00:21:51;15.10;99.90
46652;DHT22;32377;52.182;5.398;2023-05-13T00:24:17;15.10;99.90
46652;DHT22;32377;52.182;5.398;2023-05-13T00:26:43;15.00;99.90
46652;DHT22;32377;52.182;5.398;2023-05-13T00:29:08;15.00;99.90
46652;DHT22;32377;52.182;5.398;2023-05-13T00:31:34;15.00;99.90
46652;DHT22;32377;52.182;5.398;2023-05-13T00:33:59;14.90;99.90
46652;DHT22;32377;52.182;5.398;2023-05-13T00:36:25;14.90;99.90
46652;DHT22;32377;52.182;5.398;2023-05-13T00:38:51;14.90;99.90
46652;DHT22;32377;52.182;5.398;2023-05-13T00:41:17;14.80;99.90
46652;DHT22;32377;52.182;5.398;2023-05-13T00:43:44;14.80;99.90
46652;DHT22;32377;52.182;5.398;2023-05-13T00:46:10;14.70;99.90
46652;DHT22;32377;52.182;5.398;2023-05-13T00:48:35;14.70;99.90
46652;DHT22;32377;52.182;5.398;2023-05-13T00:51:02;14.70;99.90
46652;DHT22;32377;52.182;5.398;2023-05-13T00:53:31;14.60;99.90
46652;DHT22;32377;52.182;5.398;2023-05-13T00:55:56;14.50;99.90
46652;DHT22;32377;52.182;5.398;2023-05-13T00:58:22;14.50;99.90
46652;DHT22;32377;52.182;5.398;2023-05-13T01:03:37;14.40;99.90
46652;DHT22;32377;52.182;5.398;2023-05-13T01:06:15;14.30;99.90
46652;DHT22;32377;52.182;5.398;2023-05-13T01:08:48;14.20;99.90
46652;DHT22;32377;52.182;5.398;2023-05-13T01:11:23;14.10;99.90
46652;DHT22;32377;52.182;5.398;2023-05-13T01:14:18;14.00;99.90
46652;DHT22;32377;52.182;5.398;2023-05-13T01:16:48;13.90;99.90
46652;DHT22;32377;52.182;5.398;2023-05-13T01:19:37;13.90;99.90
46652;DHT22;32377;52.182;5.398;2023-05-13T01:22:04;13.90;99.90
46652;DHT22;32377;52.182;5.398;2023-05-13T01:24:31;13.70;99.90
46652;DHT22;32377;52.182;5.398;2023-05-13T01:26:56;13.80;99.90
46652;DHT22;32377;52.182;5.398;2023-05-13T01:29:22;13.70;99.90
46652;DHT22;32377;52.182;5.398;2023-05-13T01:31:49;13.50;99.90
46652;DHT22;32377;52.182;5.398;2023-05-13T01:34:17;13.60;99.90
46652;DHT22;32377;52.182;5.398;2023-05-13T01:36:43;13.60;99.90
46652;DHT22;32377;52.182;5.398;2023-05-13T01:39:10;13.50;99.90
46652;DHT22;32377;52.182;5.398;2023-05-13T01:41:36;13.50;99.90
46652;DHT22;32377;52.182;5.398;2023-05-13T01:44:02;13.40;99.90
46652;DHT22;32377;52.182;5.398;2023-05-13T01:46:27;13.40;99.90
46652;DHT22;32377;52.182;5.398;2023-05-13T01:48:53;13.30;99.90
46652;DHT22;32377;52.182;5.398;2023-05-13T01:51:19;13.30;99.90
46652;DHT22;32377;52.182;5.398;2023-05-13T01:53:44;13.20;99.90
46652;DHT22;32377;52.182;5.398;2023-05-13T01:56:10;13.20;99.90
46652;DHT22;32377;52.182;5.398;2023-05-13T01:58:36;13.30;99.90
46652;DHT22;32377;52.182;5.398;2023-05-13T02:01:01;13.20;99.90
46652;DHT22;32377;52.182;5.398;2023-05-13T02:03:28;13.30;99.90
46652;DHT22;32377;52.182;5.398;2023-05-13T02:05:53;13.20;99.90
46652;DHT22;32377;52.182;5.398;2023-05-13T02:08:19;13.20;99.90
46652;DHT22;32377;52.182;5.398;2023-05-13T02:10:58;13.20;99.90
46652;DHT22;32377;52.182;5.398;2023-05-13T02:13:24;13.20;99.90
46652;DHT22;32377;52.182;5.398;2023-05-13T02:15:51;13.10;99.90
46652;DHT22;32377;52.182;5.398;2023-05-13T02:18:16;13.00;99.90
46652;DHT22;32377;52.182;5.398;2023-05-13T02:20:43;13.10;99.90
46652;DHT22;32377;52.182;5.398;2023-05-13T02:23:08;13.00;99.90
46652;DHT22;32377;52.182;5.398;2023-05-13T02:25:34;13.00;99.90
46652;DHT22;32377;52.182;5.398;2023-05-13T02:27:59;12.90;99.90
46652;DHT22;32377;52.182;5.398;2023-05-13T02:30:25;12.90;99.90
46652;DHT22;32377;52.182;5.398;2023-05-13T02:32:55;12.90;99.90
46652;DHT22;32377;52.182;5.398;2023-05-13T02:35:21;12.90;99.90
46652;DHT22;32377;52.182;5.398;2023-05-13T02:37:48;12.80;99.90
46652;DHT22;32377;52.182;5.398;2023-05-13T02:40:14;12.80;99.90
46652;DHT22;32377;52.182;5.398;2023-05-13T02:42:39;12.70;99.90
46652;DHT22;32377;52.182;5.398;2023-05-13T02:45:05;12.70;99.90
46652;DHT22;32377;52.182;5.398;2023-05-13T02:47:31;12.70;99.90
46652;DHT22;32377;52.182;5.398;2023-05-13T02:49:57;12.70;99.90
46652;DHT22;32377;52.182;5.398;2023-05-13T02:52:22;12.60;99.90
46652;DHT22;32377;52.182;5.398;2023-05-13T02:54:48;12.50;99.90
46652;DHT22;32377;52.182;5.398;2023-05-13T02:57:14;12.50;99.90
46652;DHT22;32377;52.182;5.398;2023-05-13T02:59:39;12.50;99.90
46652;DHT22;32377;52.182;5.398;2023-05-13T03:02:05;12.50;99.90
46652;DHT22;32377;52.182;5.398;2023-05-13T03:04:30;12.40;99.90
46652;DHT22;32377;52.182;5.398;2023-05-13T03:06:56;12.40;99.90
46652;DHT22;32377;52.182;5.398;2023-05-13T03:09:22;12.30;99.90
46652;DHT22;32377;52.182;5.398;2023-05-13T03:11:47;12.30;99.90
46652;DHT22;32377;52.182;5.398;2023-05-13T03:14:13;12.30;99.90
46652;DHT22;32377;52.182;5.398;2023-05-13T03:16:39;12.20;99.90
46652;DHT22;32377;52.182;5.398;2023-05-13T03:19:04;12.20;99.90
46652;DHT22;32377;52.182;5.398;2023-05-13T03:21:30;12.20;99.90
46652;DHT22;32377;52.182;5.398;2023-05-13T03:23:56;12.20;99.90
46652;DHT22;32377;52.182;5.398;2023-05-13T03:26:21;12.20;99.90
46652;DHT22;32377;52.182;5.398;2023-05-13T03:28:47;12.10;99.90
46652;DHT22;32377;52.182;5.398;2023-05-13T03:31:12;12.10;99.90
46652;DHT22;32377;52.182;5.398;2023-05-13T03:33:38;12.10;99.90
46652;DHT22;32377;52.182;5.398;2023-05-13T03:36:04;12.10;99.90
46652;DHT22;32377;52.182;5.398;2023-05-13T03:38:31;12.10;99.90
46652;DHT22;32377;52.182;5.398;2023-05-13T03:40:56;12.10;99.90
46652;DHT22;32377;52.182;5.398;2023-05-13T03:43:22;12.00;99.90
46652;DHT22;32377;52.182;5.398;2023-05-13T03:45:48;12.00;99.90
46652;DHT22;32377;52.182;5.398;2023-05-13T03:48:15;12.00;99.90
46652;DHT22;32377;52.182;5.398;2023-05-13T03:50:40;11.90;99.90
46652;DHT22;32377;52.182;5.398;2023-05-13T03:53:06;11.90;99.90
46652;DHT22;32377;52.182;5.398;2023-05-13T03:55:32;11.90;99.90
46652;DHT22;32377;52.182;5.398;2023-05-13T03:59:26;11.90;99.90
46652;DHT22;32377;52.182;5.398;2023-05-13T04:01:52;11.90;99.90
46652;DHT22;32377;52.182;5.398;2023-05-13T04:04:17;12.00;99.90
46652;DHT22;32377;52.182;5.398;2023-05-13T04:06:43;11.90;99.90
46652;DHT22;32377;52.182;5.398;2023-05-13T04:09:08;11.90;99.90
46652;DHT22;32377;52.182;5.398;2023-05-13T04:11:34;11.90;99.90
46652;DHT22;32377;52.182;5.398;2023-05-13T04:14:00;11.90;99.90
46652;DHT22;32377;52.182;5.398;2023-05-13T04:16:25;11.90;99.90
46652;DHT22;32377;52.182;5.398;2023-05-13T04:18:52;11.90;99.90
46652;DHT22;32377;52.182;5.398;2023-05-13T04:21:17;12.00;99.90
46652;DHT22;32377;52.182;5.398;2023-05-13T04:23:43;12.00;99.90
46652;DHT22;32377;52.182;5.398;2023-05-13T04:26:09;12.00;99.90
46652;DHT22;32377;52.182;5.398;2023-05-13T04:28:35;12.00;99.90
46652;DHT22;32377;52.182;5.398;2023-05-13T04:31:00;12.00;99.90
46652;DHT22;32377;52.182;5.398;2023-05-13T04:33:27;12.00;99.90
46652;DHT22;32377;52.182;5.398;2023-05-13T04:35:52;12.00;99.90
46652;DHT22;32377;52.182;5.398;2023-05-13T04:38:18;12.00;99.90
46652;DHT22;32377;52.182;5.398;2023-05-13T04:40:44;12.00;99.90
46652;DHT22;32377;52.182;5.398;2023-05-13T04:43:12;12.00;99.90
46652;DHT22;32377;52.182;5.398;2023-05-13T04:45:38;12.00;99.90
46652;DHT22;32377;52.182;5.398;2023-05-13T04:48:04;12.10;99.90
46652;DHT22;32377;52.182;5.398;2023-05-13T04:50:30;12.10;99.90
46652;DHT22;32377;52.182;5.398;2023-05-13T04:52:56;12.10;99.90
46652;DHT22;32377;52.182;5.398;2023-05-13T04:55:22;12.20;99.90
46652;DHT22;32377;52.182;5.398;2023-05-13T04:57:48;12.20;99.90
46652;DHT22;32377;52.182;5.398;2023-05-13T05:00:16;12.20;99.90
46652;DHT22;32377;52.182;5.398;2023-05-13T05:02:42;12.20;99.90
46652;DHT22;32377;52.182;5.398;2023-05-13T05:05:08;12.20;99.90
46652;DHT22;32377;52.182;5.398;2023-05-13T05:07:33;12.40;99.90
46652;DHT22;32377;52.182;5.398;2023-05-13T05:09:59;12.40;99.90
46652;DHT22;32377;52.182;5.398;2023-05-13T05:12:25;12.50;99.90
46652;DHT22;32377;52.182;5.398;2023-05-13T05:14:50;12.50;99.90
46652;DHT22;32377;52.182;5.398;2023-05-13T05:17:16;12.60;99.90
46652;DHT22;32377;52.182;5.398;2023-05-13T05:19:42;12.70;99.90
46652;DHT22;32377;52.182;5.398;2023-05-13T05:22:07;12.80;99.90
46652;DHT22;32377;52.182;5.398;2023-05-13T05:24:33;12.80;99.90
46652;DHT22;32377;52.182;5.398;2023-05-13T05:26:58;12.80;99.90
46652;DHT22;32377;52.182;5.398;2023-05-13T05:29:24;12.90;99.90
46652;DHT22;32377;52.182;5.398;2023-05-13T05:31:49;13.00;99.90
46652;DHT22;32377;52.182;5.398;2023-05-13T05:34:15;13.10;99.90
46652;DHT22;32377;52.182;5.398;2023-05-13T05:36:41;13.10;99.90
46652;DHT22;32377;52.182;5.398;2023-05-13T05:39:06;13.20;99.90
46652;DHT22;32377;52.182;5.398;2023-05-13T05:41:32;13.20;99.90
46652;DHT22;32377;52.182;5.398;2023-05-13T05:43:58;13.40;99.90
46652;DHT22;32377;52.182;5.398;2023-05-13T05:46:24;13.40;99.90
46652;DHT22;32377;52.182;5.398;2023-05-13T05:48:49;13.40;99.90
46652;DHT22;32377;52.182;5.398;2023-05-13T05:51:15;13.50;99.90
46652;DHT22;32377;52.182;5.398;2023-05-13T05:53:40;13.60;99.90
46652;DHT22;32377;52.182;5.398;2023-05-13T05:56:07;13.60;99.90
46652;DHT22;32377;52.182;5.398;2023-05-13T05:58:33;13.70;99.90
46652;DHT22;32377;52.182;5.398;2023-05-13T06:00:58;13.70;99.90
46652;DHT22;32377;52.182;5.398;2023-05-13T06:03:25;13.80;99.90
46652;DHT22;32377;52.182;5.398;2023-05-13T06:05:51;13.90;99.90
46652;DHT22;32377;52.182;5.398;2023-05-13T06:08:17;13.90;99.90
46652;DHT22;32377;52.182;5.398;2023-05-13T06:10:43;14.00;99.90
46652;DHT22;32377;52.182;5.398;2023-05-13T06:13:09;14.10;99.90
46652;DHT22;32377;52.182;5.398;2023-05-13T06:15:36;14.20;99.90
46652;DHT22;32377;52.182;5.398;2023-05-13T06:18:02;14.30;99.90
46652;DHT22;32377;52.182;5.398;2023-05-13T06:20:30;14.40;99.90
46652;DHT22;32377;52.182;5.398;2023-05-13T06:22:55;14.40;99.90
46652;DHT22;32377;52.182;5.398;2023-05-13T06:25:21;14.50;99.90
46652;DHT22;32377;52.182;5.398;2023-05-13T06:27:47;14.40;99.90
46652;DHT22;32377;52.182;5.398;2023-05-13T06:30:12;14.40;99.90
46652;DHT22;32377;52.182;5.398;2023-05-13T06:32:38;14.50;99.90
46652;DHT22;32377;52.182;5.398;2023-05-13T06:35:04;14.50;99.90
46652;DHT22;32377;52.182;5.398;2023-05-13T06:37:29;14.70;99.90
46652;DHT22;32377;52.182;5.398;2023-05-13T06:39:55;14.80;99.90
46652;DHT22;32377;52.182;5.398;2023-05-13T06:42:21;14.80;99.90
46652;DHT22;32377;52.182;5.398;2023-05-13T06:44:49;14.80;99.90
46652;DHT22;32377;52.182;5.398;2023-05-13T06:47:15;15.10;99.90
46652;DHT22;32377;52.182;5.398;2023-05-13T06:49:41;15.30;99.90
46652;DHT22;32377;52.182;5.398;2023-05-13T06:52:08;15.40;99.90
46652;DHT22;32377;52.182;5.398;2023-05-13T06:54:33;15.50;99.90
46652;DHT22;32377;52.182;5.398;2023-05-13T06:56:59;15.50;99.90
46652;DHT22;32377;52.182;5.398;2023-05-13T06:59:25;15.40;99.90
46652;DHT22;32377;52.182;5.398;2023-05-13T07:01:50;15.50;99.90
46652;DHT22;32377;52.182;5.398;2023-05-13T07:04:16;15.40;99.90
46652;DHT22;32377;52.182;5.398;2023-05-13T07:06:41;15.50;99.90
46652;DHT22;32377;52.182;5.398;2023-05-13T07:09:07;15.60;99.90
46652;DHT22;32377;52.182;5.398;2023-05-13T07:11:36;15.60;99.90
46652;DHT22;32377;52.182;5.398;2023-05-13T07:14:01;15.60;99.90
46652;DHT22;32377;52.182;5.398;2023-05-13T07:16:27;15.60;99.90
46652;DHT22;32377;52.182;5.398;2023-05-13T07:18:52;15.70;99.90
46652;DHT22;32377;52.182;5.398;2023-05-13T07:21:19;15.90;99.90
46652;DHT22;32377;52.182;5.398;2023-05-13T07:23:44;16.00;99.90
46652;DHT22;32377;52.182;5.398;2023-05-13T07:26:10;16.10;99.90
46652;DHT22;32377;52.182;5.398;2023-05-13T07:28:36;16.20;99.90
46652;DHT22;32377;52.182;5.398;2023-05-13T07:31:03;16.30;99.90
46652;DHT22;32377;52.182;5.398;2023-05-13T07:33:30;16.40;99.90
46652;DHT22;32377;52.182;5.398;2023-05-13T07:35:56;16.40;99.90
46652;DHT22;32377;52.182;5.398;2023-05-13T07:38:21;16.50;99.90
46652;DHT22;32377;52.182;5.398;2023-05-13T07:40:47;16.70;99.90
46652;DHT22;32377;52.182;5.398;2023-05-13T07:43:13;16.70;99.90
46652;DHT22;32377;52.182;5.398;2023-05-13T07:45:39;16.80;99.90
46652;DHT22;32377;52.182;5.398;2023-05-13T09:59:26;20.10;99.90
46652;DHT22;32377;52.182;5.398;2023-05-13T10:01:54;19.80;99.90
46652;DHT22;32377;52.182;5.398;2023-05-13T10:04:19;20.00;99.90
46652;DHT22;32377;52.182;5.398;2023-05-13T10:06:46;20.10;99.90
46652;DHT22;32377;52.182;5.398;2023-05-13T10:09:14;20.10;99.90
46652;DHT22;32377;52.182;5.398;2023-05-13T10:11:44;20.20;99.90
46652;DHT22;32377;52.182;5.398;2023-05-13T10:14:11;20.20;99.90
46652;DHT22;32377;52.182;5.398;2023-05-13T10:16:37;20.30;99.90
46652;DHT22;32377;52.182;5.398;2023-05-13T10:19:04;20.10;99.90
46652;DHT22;32377;52.182;5.398;2023-05-13T10:21:30;20.30;99.90
46652;DHT22;32377;52.182;5.398;2023-05-13T10:23:57;20.30;99.90
46652;DHT22;32377;52.182;5.398;2023-05-13T10:26:23;20.30;99.90
46652;DHT22;32377;52.182;5.398;2023-05-13T10:28:49;20.20;99.90
46652;DHT22;32377;52.182;5.398;2023-05-13T10:31:16;20.30;99.90
46652;DHT22;32377;52.182;5.398;2023-05-13T10:33:42;20.50;99.90
46652;DHT22;32377;52.182;5.398;2023-05-13T10:36:27;20.60;99.90
46652;DHT22;32377;52.182;5.398;2023-05-13T10:44:34;20.60;99.90
46652;DHT22;32377;52.182;5.398;2023-05-13T10:47:01;20.80;99.90
46652;DHT22;32377;52.182;5.398;2023-05-13T10:49:32;20.80;99.90
46652;DHT22;32377;52.182;5.398;2023-05-13T10:52:10;20.90;99.90
46652;DHT22;32377;52.182;5.398;2023-05-13T10:54:39;21.00;99.90
46652;DHT22;32377;52.182;5.398;2023-05-13T10:57:07;21.00;99.90
46652;DHT22;32377;52.182;5.398;2023-05-13T10:59:33;20.90;99.90
46652;DHT22;32377;52.182;5.398;2023-05-13T11:02:20;21.00;99.90
46652;DHT22;32377;52.182;5.398;2023-05-13T11:04:59;21.20;99.90
46652;DHT22;32377;52.182;5.398;2023-05-13T11:07:28;21.20;99.90
46652;DHT22;32377;52.182;5.398;2023-05-13T11:09:53;21.20;99.90
46652;DHT22;32377;52.182;5.398;2023-05-13T11:12:19;21.20;99.90
46652;DHT22;32377;52.182;5.398;2023-05-13T11:14:45;21.50;99.90
46652;DHT22;32377;52.182;5.398;2023-05-13T11:17:11;21.40;99.90
46652;DHT22;32377;52.182;5.398;2023-05-13T11:19:37;21.40;99.90
46652;DHT22;32377;52.182;5.398;2023-05-13T11:22:08;21.50;99.90
46652;DHT22;32377;52.182;5.398;2023-05-13T11:24:36;21.40;99.90
46652;DHT22;32377;52.182;5.398;2023-05-13T11:27:19;21.50;99.90
46652;DHT22;32377;52.182;5.398;2023-05-13T11:29:52;21.70;99.90
46652;DHT22;32377;52.182;5.398;2023-05-13T11:37:45;21.70;99.90
46652;DHT22;32377;52.182;5.398;2023-05-13T11:40:41;21.70;99.90
46652;DHT22;32377;52.182;5.398;2023-05-13T11:43:07;21.90;99.90
46652;DHT22;32377;52.182;5.398;2023-05-13T11:45:37;21.90;99.90
46652;DHT22;32377;52.182;5.398;2023-05-13T11:48:22;21.80;99.90
46652;DHT22;32377;52.182;5.398;2023-05-13T11:50:49;21.90;99.90
46652;DHT22;32377;52.182;5.398;2023-05-13T11:53:20;22.00;99.90
46652;DHT22;32377;52.182;5.398;2023-05-13T11:55:47;22.10;99.90
46652;DHT22;32377;52.182;5.398;2023-05-13T11:58:13;22.20;99.80
46652;DHT22;32377;52.182;5.398;2023-05-13T12:00:40;22.20;99.90
46652;DHT22;32377;52.182;5.398;2023-05-13T12:03:10;22.20;99.90
46652;DHT22;32377;52.182;5.398;2023-05-13T12:05:39;22.20;99.50
46652;DHT22;32377;52.182;5.398;2023-05-13T12:08:10;22.40;99.30
46652;DHT22;32377;52.182;5.398;2023-05-13T12:10:42;22.30;98.60
46652;DHT22;32377;52.182;5.398;2023-05-13T12:13:08;22.30;99.80
46652;DHT22;32377;52.182;5.398;2023-05-13T12:15:34;22.50;98.50
46652;DHT22;32377;52.182;5.398;2023-05-13T12:18:00;22.40;97.90
46652;DHT22;32377;52.182;5.398;2023-05-13T12:20:25;22.50;97.50
46652;DHT22;32377;52.182;5.398;2023-05-13T12:22:53;22.70;97.00
46652;DHT22;32377;52.182;5.398;2023-05-13T12:25:41;22.70;96.60
46652;DHT22;32377;52.182;5.398;2023-05-13T12:28:18;22.70;96.00
46652;DHT22;32377;52.182;5.398;2023-05-13T12:30:58;22.70;96.10
46652;DHT22;32377;52.182;5.398;2023-05-13T12:33:40;22.70;96.00
46652;DHT22;32377;52.182;5.398;2023-05-13T12:39:08;22.90;95.30
46652;DHT22;32377;52.182;5.398;2023-05-13T12:41:39;22.90;95.40
46652;DHT22;32377;52.182;5.398;2023-05-13T12:44:09;22.90;94.10
46652;DHT22;32377;52.182;5.398;2023-05-13T12:46:36;22.90;94.30
46652;DHT22;32377;52.182;5.398;2023-05-13T12:49:03;22.90;94.20
46652;DHT22;32377;52.182;5.398;2023-05-13T12:51:30;22.80;93.80
46652;DHT22;32377;52.182;5.398;2023-05-13T12:53:58;22.80;94.30
46652;DHT22;32377;52.182;5.398;2023-05-13T12:56:24;22.90;94.20
46652;DHT22;32377;52.182;5.398;2023-05-13T12:58:52;23.00;94.90
46652;DHT22;32377;52.182;5.398;2023-05-13T13:01:18;23.10;95.60
46652;DHT22;32377;52.182;5.398;2023-05-13T13:03:45;23.10;95.70
46652;DHT22;32377;52.182;5.398;2023-05-13T13:06:11;23.10;95.30
46652;DHT22;32377;52.182;5.398;2023-05-13T13:08:37;23.00;95.60
46652;DHT22;32377;52.182;5.398;2023-05-13T13:11:03;22.90;97.10
46652;DHT22;32377;52.182;5.398;2023-05-13T13:13:29;23.00;95.80
46652;DHT22;32377;52.182;5.398;2023-05-13T13:15:55;23.00;95.30
46652;DHT22;32377;52.182;5.398;2023-05-13T13:18:21;22.80;95.10
46652;DHT22;32377;52.182;5.398;2023-05-13T13:20:49;22.90;95.10
46652;DHT22;32377;52.182;5.398;2023-05-13T13:23:16;22.90;95.60
46652;DHT22;32377;52.182;5.398;2023-05-13T13:25:42;22.90;94.70
46652;DHT22;32377;52.182;5.398;2023-05-13T13:28:08;22.90;94.70
46652;DHT22;32377;52.182;5.398;2023-05-13T13:30:33;22.90;93.80
46652;DHT22;32377;52.182;5.398;2023-05-13T13:32:59;23.00;93.70
46652;DHT22;32377;52.182;5.398;2023-05-13T13:35:24;23.00;93.60
46652;DHT22;32377;52.182;5.398;2023-05-13T13:37:50;23.20;93.80
46652;DHT22;32377;52.182;5.398;2023-05-13T13:40:16;23.20;93.80
46652;DHT22;32377;52.182;5.398;2023-05-13T13:42:43;23.20;94.40
46652;DHT22;32377;52.182;5.398;2023-05-13T13:45:10;23.00;93.30
46652;DHT22;32377;52.182;5.398;2023-05-13T13:47:35;22.90;93.10
46652;DHT22;32377;52.182;5.398;2023-05-13T13:50:01;22.90;94.50
46652;DHT22;32377;52.182;5.398;2023-05-13T13:52:27;22.90;93.30
46652;DHT22;32377;52.182;5.398;2023-05-13T13:54:53;22.90;93.50
46652;DHT22;32377;52.182;5.398;2023-05-13T13:57:19;23.10;93.10
46652;DHT22;32377;52.182;5.398;2023-05-13T13:59:44;23.10;92.80
46652;DHT22;32377;52.182;5.398;2023-05-13T14:02:10;23.10;93.40
46652;DHT22;32377;52.182;5.398;2023-05-13T14:04:36;23.10;93.30
46652;DHT22;32377;52.182;5.398;2023-05-13T14:07:01;23.20;93.10
46652;DHT22;32377;52.182;5.398;2023-05-13T14:09:27;23.10;92.10
46652;DHT22;32377;52.182;5.398;2023-05-13T14:11:52;23.10;92.50
46652;DHT22;32377;52.182;5.398;2023-05-13T14:14:18;23.10;92.60
46652;DHT22;32377;52.182;5.398;2023-05-13T14:16:43;23.00;92.50
46652;DHT22;32377;52.182;5.398;2023-05-13T14:19:12;22.90;92.10
46652;DHT22;32377;52.182;5.398;2023-05-13T14:21:37;22.90;91.50
46652;DHT22;32377;52.182;5.398;2023-05-13T14:24:03;22.80;93.10
46652;DHT22;32377;52.182;5.398;2023-05-13T14:26:29;22.90;92.20
46652;DHT22;32377;52.182;5.398;2023-05-13T14:28:55;23.10;92.20
46652;DHT22;32377;52.182;5.398;2023-05-13T14:31:21;23.00;91.70
46652;DHT22;32377;52.182;5.398;2023-05-13T14:33:46;23.00;93.10
46652;DHT22;32377;52.182;5.398;2023-05-13T14:36:12;23.10;92.30
46652;DHT22;32377;52.182;5.398;2023-05-13T14:38:42;23.20;91.90
46652;DHT22;32377;52.182;5.398;2023-05-13T14:41:07;23.20;91.40
46652;DHT22;32377;52.182;5.398;2023-05-13T14:43:33;23.20;91.20
46652;DHT22;32377;52.182;5.398;2023-05-13T14:45:58;22.90;91.40
46652;DHT22;32377;52.182;5.398;2023-05-13T14:48:24;22.80;91.60
46652;DHT22;32377;52.182;5.398;2023-05-13T14:50:49;22.80;91.10
46652;DHT22;32377;52.182;5.398;2023-05-13T14:53:16;22.70;91.20
46652;DHT22;32377;52.182;5.398;2023-05-13T14:55:41;22.80;91.40
46652;DHT22;32377;52.182;5.398;2023-05-13T14:58:07;22.90;91.10
46652;DHT22;32377;52.182;5.398;2023-05-13T15:00:35;22.90;91.40
46652;DHT22;32377;52.182;5.398;2023-05-13T15:03:06;23.00;97.90
46652;DHT22;32377;52.182;5.398;2023-05-13T15:05:31;22.80;99.90
46652;DHT22;32377;52.182;5.398;2023-05-13T15:07:57;22.70;99.90
46652;DHT22;32377;52.182;5.398;2023-05-13T15:10:23;22.60;99.90
46652;DHT22;32377;52.182;5.398;2023-05-13T15:12:49;22.50;99.90
46652;DHT22;32377;52.182;5.398;2023-05-13T15:15:15;22.50;99.90
46652;DHT22;32377;52.182;5.398;2023-05-13T15:17:40;22.40;99.90
46652;DHT22;32377;52.182;5.398;2023-05-13T15:20:07;22.50;99.90
46652;DHT22;32377;52.182;5.398;2023-05-13T15:22:32;22.40;99.90
46652;DHT22;32377;52.182;5.398;2023-05-13T15:24:58;22.40;99.90
46652;DHT22;32377;52.182;5.398;2023-05-13T15:27:26;22.30;99.90
46652;DHT22;32377;52.182;5.398;2023-05-13T15:29:52;22.20;99.90
46652;DHT22;32377;52.182;5.398;2023-05-13T15:32:18;22.30;99.90
46652;DHT22;32377;52.182;5.398;2023-05-13T15:34:44;22.30;99.90
46652;DHT22;32377;52.182;5.398;2023-05-13T15:37:09;22.20;99.90
46652;DHT22;32377;52.182;5.398;2023-05-13T15:39:35;22.10;99.90
46652;DHT22;32377;52.182;5.398;2023-05-13T15:42:00;22.00;99.90
46652;DHT22;32377;52.182;5.398;2023-05-13T15:44:26;22.20;99.90
46652;DHT22;32377;52.182;5.398;2023-05-13T15:46:52;22.20;99.90
46652;DHT22;32377;52.182;5.398;2023-05-13T15:49:17;22.20;99.90
46652;DHT22;32377;52.182;5.398;2023-05-13T15:51:43;22.10;99.90
46652;DHT22;32377;52.182;5.398;2023-05-13T15:54:09;22.20;99.90
46652;DHT22;32377;52.182;5.398;2023-05-13T15:59:24;22.20;99.90
46652;DHT22;32377;52.182;5.398;2023-05-13T16:01:50;22.00;99.90
46652;DHT22;32377;52.182;5.398;2023-05-13T16:04:16;22.10;99.90
46652;DHT22;32377;52.182;5.398;2023-05-13T16:06:42;22.00;99.90
46652;DHT22;32377;52.182;5.398;2023-05-13T16:09:07;21.90;99.90
46652;DHT22;32377;52.182;5.398;2023-05-13T16:11:33;21.90;99.90
46652;DHT22;32377;52.182;5.398;2023-05-13T16:13:59;21.80;99.90
46652;DHT22;32377;52.182;5.398;2023-05-13T16:16:25;21.70;99.90
46652;DHT22;32377;52.182;5.398;2023-05-13T16:18:51;21.70;99.90
46652;DHT22;32377;52.182;5.398;2023-05-13T16:21:17;21.60;99.90
46652;DHT22;32377;52.182;5.398;2023-05-13T16:23:43;21.70;99.90
46652;DHT22;32377;52.182;5.398;2023-05-13T16:26:08;21.70;99.90
46652;DHT22;32377;52.182;5.398;2023-05-13T16:28:34;21.70;99.90
46652;DHT22;32377;52.182;5.398;2023-05-13T16:31:00;21.60;99.90
46652;DHT22;32377;52.182;5.398;2023-05-13T16:33:26;21.60;99.90
46652;DHT22;32377;52.182;5.398;2023-05-13T16:35:52;21.60;99.90
46652;DHT22;32377;52.182;5.398;2023-05-13T16:38:18;21.60;99.90
46652;DHT22;32377;52.182;5.398;2023-05-13T16:40:44;21.60;99.90
46652;DHT22;32377;52.182;5.398;2023-05-13T16:43:10;21.60;99.90
46652;DHT22;32377;52.182;5.398;2023-05-13T16:45:36;21.50;99.90
46652;DHT22;32377;52.182;5.398;2023-05-13T16:48:04;21.30;99.90
46652;DHT22;32377;52.182;5.398;2023-05-13T16:50:30;21.30;99.90
46652;DHT22;32377;52.182;5.398;2023-05-13T16:52:55;21.30;99.90
46652;DHT22;32377;52.182;5.398;2023-05-13T16:55:21;21.40;99.90
46652;DHT22;32377;52.182;5.398;2023-05-13T16:57:47;21.30;99.90
46652;DHT22;32377;52.182;5.398;2023-05-13T17:00:12;21.30;99.90
46652;DHT22;32377;52.182;5.398;2023-05-13T17:02:38;21.40;99.90
46652;DHT22;32377;52.182;5.398;2023-05-13T17:05:05;21.40;99.90
46652;DHT22;32377;52.182;5.398;2023-05-13T17:07:30;21.40;99.90
46652;DHT22;32377;52.182;5.398;2023-05-13T17:09:56;21.40;99.90
46652;DHT22;32377;52.182;5.398;2023-05-13T17:12:22;21.20;99.90
46652;DHT22;32377;52.182;5.398;2023-05-13T17:14:47;21.10;99.90
46652;DHT22;32377;52.182;5.398;2023-05-13T17:17:13;21.10;99.90
46652;DHT22;32377;52.182;5.398;2023-05-13T17:19:38;21.00;99.90
46652;DHT22;32377;52.182;5.398;2023-05-13T17:22:04;20.90;99.90
46652;DHT22;32377;52.182;5.398;2023-05-13T17:24:30;20.80;99.90
46652;DHT22;32377;52.182;5.398;2023-05-13T17:26:55;20.80;99.90
46652;DHT22;32377;52.182;5.398;2023-05-13T17:29:21;20.80;99.90
46652;DHT22;32377;52.182;5.398;2023-05-13T17:31:48;20.80;99.90
46652;DHT22;32377;52.182;5.398;2023-05-13T17:34:16;20.80;99.90
46652;DHT22;32377;52.182;5.398;2023-05-13T17:36:41;20.70;99.90
46652;DHT22;32377;52.182;5.398;2023-05-13T17:39:07;20.60;99.90
46652;DHT22;32377;52.182;5.398;2023-05-13T17:41:32;20.60;99.90
46652;DHT22;32377;52.182;5.398;2023-05-13T17:43:58;20.60;99.90
46652;DHT22;32377;52.182;5.398;2023-05-13T17:46:23;20.50;99.90
46652;DHT22;32377;52.182;5.398;2023-05-13T17:48:49;20.50;99.90
46652;DHT22;32377;52.182;5.398;2023-05-13T17:51:15;20.50;99.90
46652;DHT22;32377;52.182;5.398;2023-05-13T17:53:40;20.40;99.90
46652;DHT22;32377;52.182;5.398;2023-05-13T17:56:06;20.40;99.90
46652;DHT22;32377;52.182;5.398;2023-05-13T17:58:35;20.30;99.90
46652;DHT22;32377;52.182;5.398;2023-05-13T18:01:01;20.30;99.90